Time;durP1;ratioP1;P1;durP2;ratioP2;P2;SDS_P1;SDS_P2;PMS_P1;PMS_P2;Temp;Humidity;BMP_temperature;BMP_pressure;BME280_temperature;BME280_humidity;BME280_pressure;Samples;Min_cycle;Max_cycle;Signal;HPM_P1;HPM_P2
2021/01/20 00:01:03;;;;;;;6.50;3.67;;;;;;;2.94;72.13;99847.84;4883991;29;20057;-81
2021/01/20 00:03:32;;;;;;;6.78;3.72;;;;;;;2.92;71.70;99844.41;4893756;29;20507;-81
2021/01/20 00:05:59;;;;;;;5.53;3.55;;;;;;;2.90;72.21;99838.34;4891837;29;20049;-80
2021/01/20 00:08:25;;;;;;;5.43;3.60;;;;;;;2.92;71.79;99839.19;4890308;29;20192;-80
2021/01/20 00:10:52;;;;;;;4.85;3.20;;;;;;;2.89;72.08;99839.25;4893333;29;20055;-80
2021/01/20 00:13:19;;;;;;;5.97;3.78;;;;;;;2.87;71.51;99838.41;4892690;29;20052;-81
2021/01/20 00:15:46;;;;;;;4.78;3.50;;;;;;;2.83;71.79;99834.19;4868018;29;20113;-80
2021/01/20 00:18:15;;;;;;;7.60;3.58;;;;;;;2.81;72.43;99833.34;4870994;29;20131;-81
2021/01/20 00:20:42;;;;;;;5.60;3.40;;;;;;;2.82;72.57;99842.91;4888644;29;20052;-80
2021/01/20 00:23:08;;;;;;;7.82;3.60;;;;;;;2.83;72.71;99838.56;4871289;29;20067;-80
2021/01/20 00:25:34;;;;;;;5.72;3.60;;;;;;;2.82;72.72;99832.47;4885012;29;20060;-80
2021/01/20 00:28:01;;;;;;;8.65;3.70;;;;;;;2.80;72.68;99824.66;4878804;29;20360;-80
2021/01/20 00:30:27;;;;;;;7.57;3.70;;;;;;;2.80;73.64;99823.78;4883996;29;20071;-80
2021/01/20 00:32:53;;;;;;;7.30;4.00;;;;;;;2.85;72.85;99821.03;4884618;29;20048;-80
2021/01/20 00:35:21;;;;;;;4.93;3.45;;;;;;;2.84;72.44;99814.94;4880090;29;20140;-80
2021/01/20 00:37:48;;;;;;;6.13;3.60;;;;;;;2.89;71.84;99813.09;4879384;29;20057;-81
2021/01/20 00:40:15;;;;;;;6.53;3.85;;;;;;;2.88;72.59;99807.91;4869967;29;20117;-81
2021/01/20 00:42:42;;;;;;;5.75;3.65;;;;;;;2.91;72.89;99799.97;4883814;29;20053;-81
2021/01/20 00:45:09;;;;;;;8.27;4.05;;;;;;;2.95;71.39;99802.50;4867777;29;20053;-80
2021/01/20 00:47:36;;;;;;;5.45;3.65;;;;;;;2.93;71.89;99792.97;4882543;29;20052;-81
2021/01/20 00:50:04;;;;;;;5.00;3.40;;;;;;;2.93;72.58;99785.13;4882097;29;20080;-82
2021/01/20 00:52:31;;;;;;;5.50;3.33;;;;;;;2.88;72.94;99779.13;4893019;29;20041;-81
2021/01/20 00:54:59;;;;;;;5.78;3.33;;;;;;;2.87;72.38;99777.41;4896082;29;20047;-81
2021/01/20 00:57:26;;;;;;;7.00;3.83;;;;;;;2.83;72.43;99777.47;4903947;29;20083;-81
2021/01/20 00:59:52;;;;;;;6.32;3.72;;;;;;;2.88;72.12;99772.16;4899549;29;20138;-81
2021/01/20 01:02:18;;;;;;;5.68;3.35;;;;;;;2.88;72.56;99774.75;4898196;29;20112;-81
2021/01/20 01:04:45;;;;;;;6.65;3.67;;;;;;;2.95;71.86;99775.47;4887420;29;20475;-82
2021/01/20 01:07:11;;;;;;;7.45;3.95;;;;;;;2.94;71.33;99777.22;4891354;29;20049;-82
2021/01/20 01:09:38;;;;;;;4.47;3.33;;;;;;;2.96;71.79;99777.19;4879396;29;20061;-81
2021/01/20 01:12:05;;;;;;;6.47;3.38;;;;;;;2.94;71.65;99777.22;4905793;29;20044;-81
2021/01/20 01:14:31;;;;;;;6.25;3.70;;;;;;;2.91;71.68;99787.75;4877928;29;20132;-80
2021/01/20 01:16:57;;;;;;;6.50;3.80;;;;;;;2.95;71.39;99784.19;4893950;29;20065;-80
2021/01/20 01:19:24;;;;;;;6.55;3.80;;;;;;;2.96;71.71;99777.19;4889880;29;20124;-81
2021/01/20 01:21:50;;;;;;;5.25;3.60;;;;;;;2.94;71.59;99784.22;4892353;29;20049;-80
2021/01/20 01:24:19;;;;;;;6.43;3.80;;;;;;;2.93;71.65;99772.91;4904322;29;20041;-80
2021/01/20 01:26:45;;;;;;;6.65;3.70;;;;;;;2.90;71.63;99765.13;4881205;29;20060;-81
2021/01/20 01:29:11;;;;;;;7.05;3.67;;;;;;;2.91;71.75;99769.47;4886352;29;20067;-81
2021/01/20 01:31:38;;;;;;;5.63;4.13;;;;;;;2.91;71.46;99771.22;4886694;29;20084;-81
2021/01/20 01:34:06;;;;;;;6.07;3.67;;;;;;;2.91;71.79;99766.84;4885020;29;20084;-81
2021/01/20 01:36:32;;;;;;;6.80;3.38;;;;;;;2.92;72.15;99768.56;4884899;29;20060;-81
2021/01/20 01:38:59;;;;;;;6.72;3.70;;;;;;;2.92;71.56;99758.09;4863401;29;20057;-81
2021/01/20 01:41:25;;;;;;;6.78;3.40;;;;;;;2.94;71.46;99766.78;4873910;29;20149;-81
2021/01/20 01:43:56;;;;;;;6.93;4.03;;;;;;;2.93;72.57;99762.44;4882984;29;20053;-81
2021/01/20 01:46:22;;;;;;;6.65;3.75;;;;;;;2.94;71.38;99758.94;4887325;29;20763;-81
2021/01/20 01:48:52;;;;;;;6.07;3.45;;;;;;;2.94;71.84;99751.09;4885322;29;20418;-81
2021/01/20 01:51:19;;;;;;;;;;;;;;;2.93;72.55;99756.34;4881603;29;20109;-81
2021/01/20 01:53:46;;;;;;;8.23;4.00;;;;;;;2.87;72.22;99746.91;4889156;29;19928;-80
2021/01/20 01:56:13;;;;;;;5.95;3.78;;;;;;;2.80;72.86;99733.16;4875018;29;20052;-79
2021/01/20 01:58:40;;;;;;;7.80;4.15;;;;;;;2.84;72.49;99746.97;4887839;29;20087;-80
2021/01/20 02:01:07;;;;;;;6.30;3.67;;;;;;;2.89;72.20;99739.88;4889696;29;20057;-79
2021/01/20 02:03:33;;;;;;;6.10;3.67;;;;;;;2.89;71.93;99747.72;4888043;29;20048;-79
2021/01/20 02:06:00;;;;;;;4.82;3.53;;;;;;;2.96;71.87;99748.44;4886682;29;20448;-82
2021/01/20 02:08:30;;;;;;;7.35;4.25;;;;;;;2.98;71.54;99755.34;4865888;29;20057;-79
2021/01/20 02:11:03;;;;;;;7.38;3.90;;;;;;;2.95;72.37;99755.41;4882532;29;20064;-82
2021/01/20 02:13:44;;;;;;;6.63;4.07;;;;;;;2.92;72.33;99745.03;4883083;29;20041;-82
2021/01/20 02:16:22;;;;;;;5.38;3.65;;;;;;;2.91;71.41;99743.31;4878913;29;20056;-83
2021/01/20 02:18:51;;;;;;;6.57;4.28;;;;;;;2.88;72.41;99738.16;4868826;29;20116;-81
2021/01/20 02:21:34;;;;;;;6.82;3.92;;;;;;;2.81;72.54;99747.06;4877637;29;20049;-81
2021/01/20 02:24:04;;;;;;;5.80;3.85;;;;;;;2.78;73.28;99741.91;4888666;29;20080;-82
2021/01/20 02:26:36;;;;;;;8.05;4.25;;;;;;;2.79;73.11;99738.41;4881668;29;20132;-82
2021/01/20 02:29:25;;;;;;;6.28;4.25;;;;;;;2.85;72.66;99738.22;4894444;29;20044;-81
2021/01/20 02:31:54;;;;;;;7.78;4.20;;;;;;;2.88;72.35;99743.38;4880806;29;20053;-81
2021/01/20 02:34:22;;;;;;;5.57;3.95;;;;;;;2.87;72.19;99739.06;4884626;29;20069;-82
2021/01/20 02:36:50;;;;;;;7.22;4.28;;;;;;;2.80;72.20;99732.28;4886409;29;20053;-82
2021/01/20 02:39:19;;;;;;;6.47;4.15;;;;;;;2.75;72.73;99735.00;4865993;29;20688;-82
2021/01/20 02:41:45;;;;;;;7.20;3.92;;;;;;;2.75;72.87;99742.00;4868160;29;20053;-81
2021/01/20 02:44:13;;;;;;;7.05;4.43;;;;;;;2.70;72.41;99742.09;4885750;29;20059;-81
2021/01/20 02:46:41;;;;;;;5.85;3.92;;;;;;;2.60;73.00;99737.16;4885497;29;20059;-81
2021/01/20 02:49:08;;;;;;;6.80;4.03;;;;;;;2.57;73.34;99732.00;4881672;29;20128;-82
2021/01/20 02:52:06;;;;;;;6.47;3.75;;;;;;;2.53;73.11;99741.66;4887723;29;20120;-82
2021/01/20 02:54:34;;;;;;;10.02;4.45;;;;;;;2.52;73.20;99744.34;4894768;29;20056;-82
2021/01/20 02:57:02;;;;;;;8.27;4.20;;;;;;;2.49;73.38;99723.50;4895182;29;20057;-83
2021/01/20 02:59:30;;;;;;;7.78;4.55;;;;;;;2.44;73.78;99721.84;4880172;29;20149;-82
2021/01/20 03:02:01;;;;;;;6.72;3.97;;;;;;;2.42;74.26;99723.63;4881652;29;20856;-82
2021/01/20 03:04:30;;;;;;;7.07;4.45;;;;;;;2.41;73.93;99716.69;4880220;29;20076;-82
2021/01/20 03:06:59;;;;;;;6.47;4.22;;;;;;;2.41;73.69;99710.59;4862995;29;20491;-83
2021/01/20 03:09:25;;;;;;;6.90;4.10;;;;;;;2.39;73.99;99708.03;4883686;29;20056;-82
2021/01/20 03:11:52;;;;;;;5.43;3.85;;;;;;;2.39;74.21;99720.25;4879224;29;20049;-82
2021/01/20 03:14:25;;;;;;;8.38;4.20;;;;;;;2.38;74.19;99710.69;4859928;29;20415;-82
2021/01/20 03:16:53;;;;;;;7.70;4.55;;;;;;;2.36;74.14;99704.66;4881006;29;20483;-83
2021/01/20 03:19:20;;;;;;;6.25;3.97;;;;;;;2.35;74.24;99701.19;4879071;29;20053;-82
2021/01/20 03:21:46;;;;;;;7.47;4.13;;;;;;;2.39;73.33;99697.59;4880651;29;20398;-82
2021/01/20 03:24:13;;;;;;;7.28;3.80;;;;;;;2.39;73.73;99700.19;4879111;29;20053;-82
2021/01/20 03:26:39;;;;;;;6.10;3.92;;;;;;;2.44;73.48;99694.88;4876636;29;20049;-83
2021/01/20 03:29:06;;;;;;;7.25;4.15;;;;;;;2.57;72.83;99698.03;4881081;29;20798;-82
2021/01/20 03:31:33;;;;;;;7.63;3.78;;;;;;;2.56;72.88;99701.53;4878932;29;20053;-82
2021/01/20 03:33:59;;;;;;;6.03;3.88;;;;;;;2.54;73.13;99703.31;4892142;29;20052;-82
2021/01/20 03:36:27;;;;;;;6.65;3.97;;;;;;;2.54;72.70;99690.25;4882334;29;20064;-82
2021/01/20 03:38:53;;;;;;;6.50;3.92;;;;;;;2.43;73.60;99680.94;4867425;29;20133;-82
2021/01/20 03:41:20;;;;;;;6.05;3.97;;;;;;;2.46;73.71;99693.94;4890056;29;20056;-82
2021/01/20 03:43:47;;;;;;;7.70;4.30;;;;;;;2.46;73.53;99687.84;4886977;29;20108;-82
2021/01/20 03:46:13;;;;;;;6.13;3.92;;;;;;;2.52;73.40;99686.84;4870086;29;20228;-82
2021/01/20 03:48:40;;;;;;;8.07;4.28;;;;;;;2.57;73.40;99690.19;4888733;29;20081;-82
2021/01/20 03:51:06;;;;;;;6.53;4.05;;;;;;;2.66;72.86;99689.97;4886675;29;20112;-82
2021/01/20 03:53:33;;;;;;;7.25;3.88;;;;;;;2.66;73.14;99687.34;4891331;29;20064;-82
2021/01/20 03:55:59;;;;;;;7.70;3.92;;;;;;;2.57;73.47;99684.94;4893779;29;20048;-81
2021/01/20 03:58:25;;;;;;;6.47;3.90;;;;;;;2.53;73.58;99685.91;4880578;29;20053;-82
2021/01/20 04:00:52;;;;;;;6.95;3.85;;;;;;;2.51;73.51;99682.50;4895042;29;20109;-81
2021/01/20 04:03:19;;;;;;;5.95;3.90;;;;;;;2.49;73.89;99686.91;4873982;29;20048;-82
2021/01/20 04:05:45;;;;;;;8.23;4.47;;;;;;;2.38;74.04;99680.19;4890208;29;20052;-82
2021/01/20 04:08:11;;;;;;;7.55;3.97;;;;;;;2.46;73.47;99682.63;4866035;29;20050;-82
2021/01/20 04:10:41;;;;;;;7.93;4.20;;;;;;;2.43;74.16;99683.56;4878374;29;20479;-82
2021/01/20 04:13:07;;;;;;;7.30;3.97;;;;;;;2.42;74.16;99673.13;4882900;29;20076;-81
2021/01/20 04:15:34;;;;;;;7.50;4.07;;;;;;;2.46;74.11;99672.16;4889068;29;20052;-82
2021/01/20 04:18:00;;;;;;;8.02;4.30;;;;;;;2.40;73.59;99665.34;4889637;29;20116;-82
2021/01/20 04:20:27;;;;;;;6.60;3.80;;;;;;;2.36;73.95;99668.91;4890156;29;20065;-82
2021/01/20 04:22:53;;;;;;;5.57;3.80;;;;;;;2.30;74.33;99666.47;4887609;29;20064;-82
2021/01/20 04:25:19;;;;;;;4.95;3.60;;;;;;;2.29;74.67;99669.13;4867261;29;20056;-82
2021/01/20 04:27:46;;;;;;;6.60;3.90;;;;;;;2.30;74.43;99669.09;4888723;29;20056;-82
2021/01/20 04:30:13;;;;;;;7.25;4.05;;;;;;;2.30;74.42;99663.00;4880360;29;20063;-82
2021/01/20 04:32:39;;;;;;;6.22;3.90;;;;;;;2.27;74.83;99661.31;4900996;29;20116;-80
2021/01/20 04:35:06;;;;;;;5.88;4.03;;;;;;;2.25;74.58;99652.66;4894649;29;20093;-82
2021/01/20 04:37:33;;;;;;;5.40;3.65;;;;;;;2.23;74.54;99659.66;4898995;29;20060;-82
2021/01/20 04:40:03;;;;;;;6.80;3.75;;;;;;;2.23;74.86;99659.66;4889305;29;20071;-82
2021/01/20 04:42:30;;;;;;;6.72;3.90;;;;;;;2.23;74.77;99654.44;4888045;29;20170;-81
2021/01/20 04:44:57;;;;;;;6.20;3.83;;;;;;;2.21;74.88;99651.00;4878673;29;20061;-82
2021/01/20 04:47:23;;;;;;;5.72;3.58;;;;;;;2.26;74.69;99643.06;4883374;29;20143;-82
2021/01/20 04:49:52;;;;;;;6.57;3.70;;;;;;;2.25;74.96;99642.22;4882240;29;20041;-82
2021/01/20 04:52:19;;;;;;;5.55;3.42;;;;;;;2.29;74.75;99643.00;4888796;29;20183;-81
2021/01/20 04:54:46;;;;;;;8.02;3.75;;;;;;;2.36;74.31;99632.34;4890319;29;20098;-82
2021/01/20 04:57:13;;;;;;;6.82;3.72;;;;;;;2.39;73.65;99637.47;4886155;29;20048;-81
2021/01/20 04:59:41;;;;;;;4.97;3.50;;;;;;;2.43;74.06;99631.28;4893334;29;20064;-82
2021/01/20 05:02:10;;;;;;;5.57;3.50;;;;;;;2.43;74.18;99626.06;4887570;29;20063;-82
2021/01/20 05:04:40;;;;;;;5.28;3.63;;;;;;;2.48;73.51;99623.34;4889699;29;20085;-82
2021/01/20 05:07:08;;;;;;;4.53;3.05;;;;;;;2.56;73.14;99623.97;4886460;29;20052;-81
2021/01/20 05:09:35;;;;;;;5.10;3.17;;;;;;;2.57;73.26;99624.84;4881617;29;20048;-81
2021/01/20 05:12:02;;;;;;;6.65;3.38;;;;;;;2.57;73.49;99623.09;4885013;29;20146;-82
2021/01/20 05:14:28;;;;;;;6.13;3.60;;;;;;;2.59;72.52;99621.28;4888086;29;20045;-82
2021/01/20 05:17:06;;;;;;;5.22;3.55;;;;;;;2.61;72.93;99623.88;4872646;29;20718;-82
2021/01/20 05:19:38;;;;;;;5.45;3.22;;;;;;;2.68;73.19;99622.78;4873550;29;20041;-82
2021/01/20 05:22:13;;;;;;;5.28;3.08;;;;;;;2.77;72.55;99633.00;4894086;29;20049;-82
2021/01/20 05:24:40;;;;;;;4.55;2.97;;;;;;;2.82;72.31;99623.28;4880025;29;20049;-81
2021/01/20 05:27:07;;;;;;;4.95;3.53;;;;;;;2.81;72.31;99625.03;4889056;29;20073;-82
2021/01/20 05:29:36;;;;;;;4.55;3.00;;;;;;;2.81;72.32;99626.81;4895134;29;20090;-82
2021/01/20 05:32:33;;;;;;;6.45;3.45;;;;;;;2.83;72.09;99625.00;4900297;29;20052;-80
2021/01/20 05:35:03;;;;;;;4.95;2.90;;;;;;;2.83;72.47;99613.69;4883938;29;20041;-81
2021/01/20 05:37:30;;;;;;;4.75;2.97;;;;;;;2.88;72.05;99614.41;4900403;29;20037;-81
2021/01/20 05:40:11;;;;;;;5.40;3.25;;;;;;;2.94;72.12;99615.09;4899304;29;20186;-80
2021/01/20 05:42:43;;;;;;;4.80;3.22;;;;;;;2.98;72.11;99619.34;4897815;29;20060;-82
2021/01/20 05:45:10;;;;;;;6.18;3.17;;;;;;;3.06;70.78;99614.72;4898511;29;20048;-82
2021/01/20 05:47:36;;;;;;;5.95;3.58;;;;;;;3.13;71.11;99616.28;4879017;29;20060;-82
2021/01/20 05:50:07;;;;;;;6.28;3.50;;;;;;;3.17;71.12;99615.28;4889170;29;20039;-82
2021/01/20 05:52:34;;;;;;;5.78;3.17;;;;;;;3.22;70.63;99617.75;4887136;29;20045;-81
2021/01/20 05:55:13;;;;;;;4.68;3.13;;;;;;;3.24;70.87;99617.72;4874854;29;20041;-81
2021/01/20 05:57:51;;;;;;;5.88;3.20;;;;;;;3.29;70.75;99628.91;4857901;29;20056;-82
2021/01/20 06:00:18;;;;;;;4.60;2.90;;;;;;;3.35;70.88;99620.88;4874853;29;20056;-82
2021/01/20 06:02:44;;;;;;;5.13;2.90;;;;;;;3.32;70.27;99624.41;4890195;29;20080;-82
2021/01/20 06:05:11;;;;;;;5.60;3.38;;;;;;;3.37;70.17;99627.78;4882831;29;20061;-82
2021/01/20 06:07:38;;;;;;;4.88;2.78;;;;;;;3.44;69.66;99631.94;4877938;29;20680;-82
2021/01/20 06:10:05;;;;;;;6.05;3.30;;;;;;;3.47;69.53;99630.94;4886920;29;20087;-81
2021/01/20 06:12:32;;;;;;;5.85;3.10;;;;;;;3.47;69.70;99628.34;4888027;29;20052;-82
2021/01/20 06:14:58;;;;;;;5.93;3.30;;;;;;;3.50;69.77;99633.50;4870746;29;20049;-82
2021/01/20 06:17:35;;;;;;;5.78;3.10;;;;;;;3.51;69.78;99630.81;4868873;29;20053;-82
2021/01/20 06:20:05;;;;;;;3.55;2.75;;;;;;;3.48;69.89;99614.34;4887003;29;20080;-82
2021/01/20 06:22:34;;;;;;;5.43;3.30;;;;;;;3.50;69.73;99620.41;4871386;29;20036;-82
2021/01/20 06:25:24;;;;;;;5.45;3.28;;;;;;;3.49;69.76;99609.06;4883931;29;20049;-82
2021/01/20 06:27:55;;;;;;;5.28;3.53;;;;;;;3.50;69.81;99607.31;4877574;29;20081;-82
2021/01/20 06:30:43;;;;;;;4.93;2.90;;;;;;;3.52;69.53;99611.59;4873023;29;20067;-82
2021/01/20 06:33:14;;;;;;;6.07;3.30;;;;;;;3.57;69.89;99608.00;4883410;29;20064;-82
2021/01/20 06:35:44;;;;;;;6.22;3.60;;;;;;;3.65;69.23;99608.59;4881196;29;20060;-82
2021/01/20 06:38:35;;;;;;;4.18;2.67;;;;;;;3.68;68.88;99605.88;4890821;29;20049;-82
2021/01/20 06:41:07;;;;;;;3.97;2.72;;;;;;;3.77;68.71;99609.09;4892565;29;20047;-82
2021/01/20 06:43:33;;;;;;;5.97;3.13;;;;;;;3.82;68.58;99608.91;4906137;29;20064;-82
2021/01/20 06:46:19;;;;;;;6.93;3.05;;;;;;;3.82;68.27;99604.53;4883123;29;20113;-82
2021/01/20 06:48:56;;;;;;;4.68;2.80;;;;;;;3.84;67.96;99605.34;4901040;29;20052;-82
2021/01/20 06:51:24;;;;;;;5.57;2.85;;;;;;;3.91;67.38;99602.53;4895567;29;20116;-81
2021/01/20 06:56:33;;;;;;;4.35;2.42;;;;;;;4.03;67.13;99612.63;4903532;29;20124;-81
2021/01/20 06:59:14;;;;;;;6.38;2.85;;;;;;;4.04;67.25;99609.94;4894579;29;21903;-81
2021/01/20 07:01:41;;;;;;;5.75;3.40;;;;;;;4.09;66.88;99615.03;4875078;29;20483;-80
2021/01/20 07:04:08;;;;;;;4.55;2.60;;;;;;;4.12;66.66;99623.63;4875778;29;20045;-81
2021/01/20 07:06:34;;;;;;;5.72;3.00;;;;;;;4.13;66.69;99638.44;4892037;29;20049;-81
2021/01/20 07:09:09;;;;;;;6.47;2.40;;;;;;;4.13;67.18;99630.59;4895550;29;20025;-82
2021/01/20 07:12:14;;;;;;;5.57;3.35;;;;;;;4.07;67.33;99633.44;4881802;29;20093;-80
2021/01/20 07:14:43;;;;;;;6.28;2.80;;;;;;;3.96;67.99;99608.47;4820162;29;20055;-81
2021/01/20 07:17:12;;;;;;;4.68;2.80;;;;;;;4.03;68.00;99618.72;4826926;29;20709;-81
2021/01/20 07:19:41;;;;;;;8.57;3.83;;;;;;;4.06;68.35;99629.09;4853140;29;20049;-81
2021/01/20 07:22:08;;;;;;;6.60;3.40;;;;;;;4.05;67.68;99611.66;4882090;29;20057;-81
2021/01/20 07:24:35;;;;;;;7.40;3.28;;;;;;;4.13;67.85;99620.13;4862050;29;20568;-80
2021/01/20 07:27:09;;;;;;;5.20;3.13;;;;;;;4.14;67.35;99607.88;4882422;29;20053;-82
2021/01/20 07:29:39;;;;;;;6.05;2.90;;;;;;;4.16;67.35;99616.53;4874277;29;20483;-82
2021/01/20 07:32:06;;;;;;;4.18;2.95;;;;;;;4.18;67.10;99607.72;4878174;29;20053;-82
2021/01/20 07:34:39;;;;;;;6.53;3.20;;;;;;;4.20;67.34;99610.28;4867546;29;20056;-82
2021/01/20 07:37:17;;;;;;;7.78;3.42;;;;;;;4.21;66.88;99617.25;4878516;29;20929;-81
2021/01/20 07:39:45;;;;;;;5.03;3.00;;;;;;;4.23;67.05;99607.56;4882167;29;20097;-82
2021/01/20 07:42:11;;;;;;;6.53;3.05;;;;;;;4.41;71.84;99606.94;4886604;29;20056;-82
2021/01/20 07:44:48;;;;;;;6.90;3.70;;;;;;;4.59;72.01;99608.06;4872556;29;20125;-82
2021/01/20 07:47:15;;;;;;;5.32;3.22;;;;;;;4.74;67.01;99604.88;4884509;29;20112;-81
2021/01/20 07:49:52;;;;;;;5.18;3.15;;;;;;;4.69;66.48;99606.84;4891189;29;20049;-81
2021/01/20 07:52:19;;;;;;;6.43;3.17;;;;;;;4.71;65.55;99601.53;4888228;29;21021;-81
2021/01/20 07:54:50;;;;;;;6.50;3.00;;;;;;;4.65;65.20;99592.13;4892694;29;20049;-81
2021/01/20 07:57:21;;;;;;;6.60;3.05;;;;;;;4.55;66.10;99588.13;4899472;29;20069;-82
2021/01/20 08:00:08;;;;;;;5.07;3.15;;;;;;;4.52;65.55;99588.22;4887129;29;20117;-83
2021/01/20 08:02:46;;;;;;;4.03;3.10;;;;;;;4.50;66.17;99583.03;4879628;29;20048;-82
2021/01/20 08:05:14;;;;;;;5.65;3.20;;;;;;;4.45;66.84;99579.72;4868196;29;20076;-81
2021/01/20 08:07:42;;;;;;;5.90;3.38;;;;;;;4.45;66.42;99578.84;4889759;29;20136;-80
2021/01/20 08:10:18;;;;;;;5.03;2.83;;;;;;;4.46;67.25;99576.19;4883724;29;20087;-81
2021/01/20 08:12:46;;;;;;;6.28;3.00;;;;;;;4.51;66.87;99574.25;4881520;29;20052;-82
2021/01/20 08:15:16;;;;;;;6.82;3.17;;;;;;;4.57;67.28;99571.41;4885936;29;20049;-81
2021/01/20 08:17:47;;;;;;;7.30;3.00;;;;;;;4.68;66.64;99585.91;4886103;29;20164;-80
2021/01/20 08:20:14;;;;;;;5.63;3.20;;;;;;;4.74;66.29;99581.28;4883417;29;20069;-81
2021/01/20 08:22:45;;;;;;;6.70;3.13;;;;;;;4.78;65.44;99587.28;4863816;29;20658;-82
2021/01/20 08:25:22;;;;;;;9.00;3.20;;;;;;;4.90;65.34;99586.81;4882586;29;20057;-80
2021/01/20 08:27:50;;;;;;;5.53;3.05;;;;;;;4.92;64.95;99578.00;4882461;29;20129;-81
2021/01/20 08:30:29;;;;;;;5.50;3.05;;;;;;;5.01;64.41;99581.22;4886865;29;20053;-81
2021/01/20 08:32:57;;;;;;;7.93;3.22;;;;;;;4.99;65.04;99576.00;4870799;29;20051;-81
2021/01/20 08:35:37;;;;;;;8.57;3.63;;;;;;;4.97;64.80;99566.47;4868787;29;20067;-80
2021/01/20 08:38:05;;;;;;;5.22;3.20;;;;;;;5.07;64.89;99576.56;4882945;29;20112;-81
2021/01/20 08:40:39;;;;;;;6.53;3.38;;;;;;;5.09;64.89;99577.38;4890288;29;21393;-80
2021/01/20 08:43:21;;;;;;;6.50;3.35;;;;;;;5.14;63.92;99580.69;4897012;29;20117;-83
2021/01/20 08:45:49;;;;;;;4.70;2.90;;;;;;;5.23;63.46;99582.94;4886385;29;20052;-82
2021/01/20 08:48:15;;;;;;;4.70;3.00;;;;;;;5.27;64.67;99583.69;4894024;29;20055;-82
2021/01/20 08:50:44;;;;;;;6.53;3.22;;;;;;;5.27;64.48;99581.06;4894632;29;20069;-81
2021/01/20 08:53:28;;;;;;;6.90;3.20;;;;;;;5.31;63.80;99584.44;4888695;29;20108;-82
2021/01/20 08:55:56;;;;;;;6.15;3.25;;;;;;;5.40;67.52;99592.81;4885538;29;20057;-83
2021/01/20 08:58:33;;;;;;;7.78;3.28;;;;;;;5.72;68.27;99583.66;4885488;29;20045;-81
2021/01/20 09:01:02;;;;;;;4.85;3.03;;;;;;;5.92;66.75;99586.38;4885915;29;20065;-81
2021/01/20 09:03:38;;;;;;;8.95;4.63;;;;;;;6.07;67.47;99584.03;4887010;29;20045;-81
2021/01/20 09:06:12;;;;;;;7.63;3.67;;;;;;;6.28;65.65;99577.88;4885206;29;20144;-81
2021/01/20 09:08:39;;;;;;;4.10;3.15;;;;;;;6.33;63.06;99578.53;4886878;29;20061;-82
2021/01/20 09:11:06;;;;;;;6.40;3.65;;;;;;;6.31;63.95;99567.22;4871380;29;20073;-81
2021/01/20 09:13:32;;;;;;;7.30;3.45;;;;;;;6.41;64.48;99565.91;4885308;29;20057;-82
2021/01/20 09:15:59;;;;;;;5.05;3.13;;;;;;;6.42;62.60;99565.00;4879997;29;20056;-81
2021/01/20 09:18:25;;;;;;;6.00;3.40;;;;;;;6.29;60.91;99559.41;4886959;29;20073;-82
2021/01/20 09:20:53;;;;;;;5.07;3.30;;;;;;;6.19;61.43;99565.09;4889634;29;20113;-81
2021/01/20 09:23:23;;;;;;;5.20;3.45;;;;;;;5.98;61.37;99562.44;4901794;29;20047;-81
2021/01/20 09:25:49;;;;;;;5.57;3.60;;;;;;;5.82;62.15;99560.53;4901683;29;20127;-82
2021/01/20 09:28:16;;;;;;;6.43;3.70;;;;;;;5.72;62.92;99562.66;4880665;29;20112;-82
2021/01/20 09:30:50;;;;;;;10.07;3.92;;;;;;;5.66;63.34;99551.56;4901044;29;20045;-81
2021/01/20 09:33:17;;;;;;;11.27;3.92;;;;;;;5.68;63.05;99553.16;4893089;29;20061;-82
2021/01/20 09:35:46;;;;;;;8.85;3.88;;;;;;;5.79;62.04;99558.00;4904220;29;20053;-82
2021/01/20 09:38:13;;;;;;;5.30;3.58;;;;;;;5.79;62.00;99556.25;4872835;29;20105;-82
2021/01/20 09:40:39;;;;;;;7.85;4.78;;;;;;;5.81;62.11;99559.66;4872747;29;20148;-82
2021/01/20 09:43:06;;;;;;;8.35;3.70;;;;;;;5.87;62.43;99563.78;4884609;29;20105;-82
2021/01/20 09:45:32;;;;;;;6.53;3.70;;;;;;;5.89;62.34;99560.22;4886861;29;20065;-82
2021/01/20 09:48:04;;;;;;;6.35;3.55;;;;;;;5.89;62.34;99554.97;4895304;29;20059;-82
2021/01/20 09:50:34;;;;;;;6.57;3.80;;;;;;;5.89;63.22;99552.34;4899124;29;20053;-81
2021/01/20 09:53:02;;;;;;;7.35;4.38;;;;;;;5.95;62.29;99559.97;4868556;29;20129;-81
2021/01/20 09:55:29;;;;;;;5.18;3.35;;;;;;;6.03;61.59;99546.50;4894738;29;20053;-81
2021/01/20 09:57:56;;;;;;;10.05;4.05;;;;;;;6.05;61.62;99543.81;4885808;29;20076;-81
2021/01/20 10:00:26;;;;;;;7.05;3.83;;;;;;;6.11;61.50;99546.19;4883868;29;20059;-81
2021/01/20 10:02:53;;;;;;;11.63;4.45;;;;;;;6.17;61.92;99551.19;4889723;29;20052;-81
2021/01/20 10:05:20;;;;;;;7.43;4.07;;;;;;;6.23;61.19;99540.41;4882409;29;20052;-81
2021/01/20 10:07:46;;;;;;;6.18;3.65;;;;;;;6.26;61.19;99537.66;4889298;29;20057;-82
2021/01/20 10:10:13;;;;;;;7.70;3.90;;;;;;;6.31;60.71;99533.88;4881996;29;20045;-82
2021/01/20 10:12:40;;;;;;;7.50;4.05;;;;;;;6.37;60.53;99527.53;4892001;29;20148;-82
2021/01/20 10:15:08;;;;;;;10.20;4.20;;;;;;;6.41;60.17;99518.59;4899789;29;20040;-81
2021/01/20 10:17:37;;;;;;;9.50;3.90;;;;;;;6.45;60.30;99519.31;4875598;29;20072;-81
2021/01/20 10:20:06;;;;;;;6.82;4.00;;;;;;;6.49;59.91;99511.19;4894544;29;20534;-81
2021/01/20 10:22:33;;;;;;;9.05;4.30;;;;;;;6.50;59.67;99509.41;4889888;29;20053;-81
2021/01/20 10:25:00;;;;;;;6.82;3.90;;;;;;;6.51;60.34;99495.34;4881790;29;20052;-82
2021/01/20 10:27:26;;;;;;;6.82;3.95;;;;;;;6.52;60.46;99487.41;4864755;29;20113;-83
2021/01/20 10:29:54;;;;;;;6.95;4.13;;;;;;;6.61;60.52;99494.84;4897143;29;20049;-81
2021/01/20 10:32:26;;;;;;;8.15;4.60;;;;;;;6.65;60.02;99485.91;4897923;29;20049;-82
2021/01/20 10:34:55;;;;;;;7.43;3.97;;;;;;;6.67;59.67;99477.94;4873233;29;20056;-82
2021/01/20 10:37:25;;;;;;;6.97;4.07;;;;;;;6.72;59.66;99473.34;4886280;29;20060;-82
2021/01/20 10:39:52;;;;;;;10.32;4.20;;;;;;;6.71;60.13;99466.38;4887048;29;20065;-83
2021/01/20 10:42:19;;;;;;;8.63;4.07;;;;;;;6.69;60.50;99463.81;4878395;29;20499;-83
2021/01/20 10:44:47;;;;;;;7.72;4.00;;;;;;;6.73;60.11;99466.31;4877363;29;20076;-83
2021/01/20 10:47:18;;;;;;;6.65;4.07;;;;;;;6.71;59.81;99460.25;4878401;29;20077;-83
2021/01/20 10:49:44;;;;;;;9.18;4.60;;;;;;;6.72;60.32;99461.97;4882279;29;20079;-83
2021/01/20 10:52:11;;;;;;;8.18;4.65;;;;;;;6.68;60.61;99451.56;4878532;29;20057;-83
2021/01/20 10:54:38;;;;;;;9.60;4.40;;;;;;;6.73;60.08;99447.88;4881966;29;20209;-83
2021/01/20 10:57:05;;;;;;;6.63;4.30;;;;;;;6.71;60.90;99428.69;4900940;29;20051;-83
2021/01/20 10:59:41;;;;;;;7.38;4.00;;;;;;;6.78;60.29;99427.47;4893205;29;20049;-82
2021/01/20 11:02:09;;;;;;;8.57;3.80;;;;;;;6.89;60.25;99443.63;4896104;29;20049;-82
2021/01/20 11:04:35;;;;;;;8.63;4.18;;;;;;;6.93;60.34;99424.09;4897610;29;20055;-83
2021/01/20 11:07:03;;;;;;;11.00;4.22;;;;;;;7.05;59.33;99434.06;4893572;29;20053;-83
2021/01/20 11:09:30;;;;;;;8.52;4.55;;;;;;;7.14;58.89;99430.13;4878126;29;20048;-83
2021/01/20 11:11:58;;;;;;;10.93;4.57;;;;;;;7.15;59.29;99423.94;4893464;29;20045;-81
2021/01/20 11:14:25;;;;;;;7.68;4.30;;;;;;;7.23;58.85;99419.16;4895662;29;20033;-80
2021/01/20 11:16:53;;;;;;;7.68;3.70;;;;;;;7.28;58.28;99417.16;4881838;29;20063;-81
2021/01/20 11:19:20;;;;;;;5.28;3.35;;;;;;;7.36;58.17;99418.50;4894450;29;20092;-82
2021/01/20 11:21:47;;;;;;;8.45;3.90;;;;;;;7.39;58.39;99406.97;4892904;29;20053;-81
2021/01/20 11:24:17;;;;;;;8.60;4.05;;;;;;;7.50;58.28;99409.03;4891224;29;20108;-81
2021/01/20 11:26:47;;;;;;;6.15;3.70;;;;;;;7.45;58.28;99384.72;4887531;29;20083;-82
2021/01/20 11:29:14;;;;;;;9.15;4.45;;;;;;;7.54;58.31;99397.44;4891303;29;20045;-81
2021/01/20 11:31:41;;;;;;;8.10;4.07;;;;;;;7.52;58.52;99386.97;4887694;29;20053;-81
2021/01/20 11:34:08;;;;;;;9.18;3.97;;;;;;;7.52;58.31;99376.44;4869428;29;20061;-81
2021/01/20 11:36:36;;;;;;;7.80;3.50;;;;;;;7.51;58.08;99373.88;4893678;29;20088;-82
2021/01/20 11:39:04;;;;;;;8.43;3.85;;;;;;;7.57;58.60;99386.72;4877642;29;20069;-81
2021/01/20 11:41:31;;;;;;;5.10;3.60;;;;;;;7.67;58.05;99377.44;4903227;29;20052;-82
2021/01/20 11:43:57;;;;;;;5.97;3.92;;;;;;;7.81;58.23;99382.84;4886832;29;20043;-80
2021/01/20 11:46:23;;;;;;;8.02;4.78;;;;;;;7.90;58.11;99382.34;4893217;29;20052;-81
2021/01/20 11:48:54;;;;;;;6.40;4.10;;;;;;;7.96;57.91;99366.22;4902818;29;20060;-81
2021/01/20 11:51:21;;;;;;;5.80;3.97;;;;;;;8.04;57.33;99368.44;4886398;29;20092;-81
2021/01/20 11:53:47;;;;;;;6.97;3.80;;;;;;;8.09;57.46;99354.09;4884643;29;20047;-82